sensor_id;sensor_type;location;lat;lon;timestamp;P1;durP1;ratioP1;P2;durP2;ratioP2
38435;SDS011;24220;48.168;14.024;2023-07-13T00:00:31;3.65;;;2.60;;
38435;SDS011;24220;48.168;14.024;2023-07-13T00:03:01;6.93;;;2.58;;
38435;SDS011;24220;48.168;14.024;2023-07-13T00:05:29;4.72;;;2.63;;
38435;SDS011;24220;48.168;14.024;2023-07-13T00:07:56;7.60;;;2.65;;
38435;SDS011;24220;48.168;14.024;2023-07-13T00:10:24;5.30;;;2.60;;
38435;SDS011;24220;48.168;14.024;2023-07-13T00:12:51;4.40;;;2.88;;
38435;SDS011;24220;48.168;14.024;2023-07-13T00:15:23;6.90;;;2.72;;
38435;SDS011;24220;48.168;14.024;2023-07-13T00:17:53;4.82;;;3.20;;
38435;SDS011;24220;48.168;14.024;2023-07-13T00:20:22;5.35;;;2.88;;
38435;SDS011;24220;48.168;14.024;2023-07-13T00:22:51;6.03;;;3.15;;
38435;SDS011;24220;48.168;14.024;2023-07-13T00:25:21;5.53;;;2.90;;
38435;SDS011;24220;48.168;14.024;2023-07-13T00:27:55;6.65;;;3.00;;
38435;SDS011;24220;48.168;14.024;2023-07-13T00:30:24;6.28;;;2.83;;
38435;SDS011;24220;48.168;14.024;2023-07-13T00:32:54;6.18;;;2.97;;
38435;SDS011;24220;48.168;14.024;2023-07-13T00:35:43;6.17;;;3.30;;
38435;SDS011;24220;48.168;14.024;2023-07-13T00:38:11;8.63;;;3.13;;
38435;SDS011;24220;48.168;14.024;2023-07-13T00:40:41;5.95;;;2.63;;
38435;SDS011;24220;48.168;14.024;2023-07-13T00:43:11;5.00;;;2.88;;
38435;SDS011;24220;48.168;14.024;2023-07-13T00:48:15;5.65;;;3.00;;
38435;SDS011;24220;48.168;14.024;2023-07-13T00:50:51;8.07;;;2.85;;
38435;SDS011;24220;48.168;14.024;2023-07-13T00:53:20;3.28;;;2.97;;
38435;SDS011;24220;48.168;14.024;2023-07-13T00:55:53;5.05;;;3.15;;
38435;SDS011;24220;48.168;14.024;2023-07-13T01:00:50;4.97;;;3.40;;
38435;SDS011;24220;48.168;14.024;2023-07-13T01:03:18;4.78;;;3.17;;
38435;SDS011;24220;48.168;14.024;2023-07-13T01:05:47;4.35;;;2.65;;
38435;SDS011;24220;48.168;14.024;2023-07-13T01:08:21;4.80;;;3.05;;
38435;SDS011;24220;48.168;14.024;2023-07-13T01:10:54;2.45;;;2.22;;
38435;SDS011;24220;48.168;14.024;2023-07-13T01:13:23;3.47;;;2.35;;
38435;SDS011;24220;48.168;14.024;2023-07-13T01:15:51;3.65;;;2.33;;
38435;SDS011;24220;48.168;14.024;2023-07-13T01:18:22;3.10;;;2.45;;
38435;SDS011;24220;48.168;14.024;2023-07-13T01:20:59;4.65;;;3.00;;
38435;SDS011;24220;48.168;14.024;2023-07-13T01:23:28;4.63;;;2.90;;
38435;SDS011;24220;48.168;14.024;2023-07-13T01:25:57;5.20;;;3.08;;
38435;SDS011;24220;48.168;14.024;2023-07-13T01:28:25;6.85;;;3.30;;
38435;SDS011;24220;48.168;14.024;2023-07-13T01:30:55;4.88;;;3.83;;
38435;SDS011;24220;48.168;14.024;2023-07-13T01:33:24;7.30;;;2.92;;
38435;SDS011;24220;48.168;14.024;2023-07-13T01:35:52;5.13;;;2.83;;
38435;SDS011;24220;48.168;14.024;2023-07-13T01:38:20;6.22;;;3.28;;
38435;SDS011;24220;48.168;14.024;2023-07-13T01:40:51;4.75;;;2.58;;
38435;SDS011;24220;48.168;14.024;2023-07-13T01:43:19;5.82;;;2.85;;
38435;SDS011;24220;48.168;14.024;2023-07-13T01:45:48;5.97;;;2.72;;
38435;SDS011;24220;48.168;14.024;2023-07-13T01:48:15;4.32;;;2.80;;
38435;SDS011;24220;48.168;14.024;2023-07-13T01:50:42;4.07;;;2.80;;
38435;SDS011;24220;48.168;14.024;2023-07-13T01:53:10;4.57;;;2.70;;
38435;SDS011;24220;48.168;14.024;2023-07-13T01:55:41;6.18;;;3.00;;
38435;SDS011;24220;48.168;14.024;2023-07-13T01:58:08;3.03;;;2.63;;
38435;SDS011;24220;48.168;14.024;2023-07-13T02:00:36;3.58;;;2.47;;
38435;SDS011;24220;48.168;14.024;2023-07-13T02:03:03;3.47;;;3.10;;
38435;SDS011;24220;48.168;14.024;2023-07-13T02:05:34;2.65;;;2.33;;
38435;SDS011;24220;48.168;14.024;2023-07-13T02:08:01;3.30;;;1.90;;
38435;SDS011;24220;48.168;14.024;2023-07-13T02:10:29;3.67;;;2.05;;
38435;SDS011;24220;48.168;14.024;2023-07-13T02:12:58;3.72;;;2.45;;
38435;SDS011;24220;48.168;14.024;2023-07-13T02:15:26;2.40;;;2.20;;
38435;SDS011;24220;48.168;14.024;2023-07-13T02:17:53;3.13;;;2.22;;
38435;SDS011;24220;48.168;14.024;2023-07-13T02:20:20;4.03;;;2.55;;
38435;SDS011;24220;48.168;14.024;2023-07-13T02:22:48;2.90;;;2.20;;
38435;SDS011;24220;48.168;14.024;2023-07-13T02:25:15;5.13;;;2.53;;
38435;SDS011;24220;48.168;14.024;2023-07-13T02:27:43;3.95;;;2.22;;
38435;SDS011;24220;48.168;14.024;2023-07-13T02:30:10;2.72;;;1.98;;
38435;SDS011;24220;48.168;14.024;2023-07-13T02:32:38;3.38;;;2.00;;
38435;SDS011;24220;48.168;14.024;2023-07-13T02:35:05;2.40;;;2.20;;
38435;SDS011;24220;48.168;14.024;2023-07-13T02:37:33;4.00;;;2.35;;
38435;SDS011;24220;48.168;14.024;2023-07-13T02:40:02;3.22;;;2.30;;
38435;SDS011;24220;48.168;14.024;2023-07-13T02:42:35;4.28;;;2.38;;
38435;SDS011;24220;48.168;14.024;2023-07-13T02:45:06;4.80;;;2.67;;
38435;SDS011;24220;48.168;14.024;2023-07-13T02:47:35;3.03;;;2.50;;
38435;SDS011;24220;48.168;14.024;2023-07-13T02:50:05;4.85;;;2.50;;
38435;SDS011;24220;48.168;14.024;2023-07-13T02:52:33;3.13;;;2.20;;
38435;SDS011;24220;48.168;14.024;2023-07-13T02:55:00;2.85;;;2.28;;
38435;SDS011;24220;48.168;14.024;2023-07-13T02:57:28;3.22;;;2.53;;
38435;SDS011;24220;48.168;14.024;2023-07-13T02:59:55;4.50;;;2.25;;
38435;SDS011;24220;48.168;14.024;2023-07-13T03:02:22;3.67;;;2.50;;
38435;SDS011;24220;48.168;14.024;2023-07-13T03:04:50;4.20;;;2.50;;
38435;SDS011;24220;48.168;14.024;2023-07-13T03:07:17;3.15;;;2.45;;
38435;SDS011;24220;48.168;14.024;2023-07-13T03:09:47;2.67;;;2.30;;
38435;SDS011;24220;48.168;14.024;2023-07-13T03:12:14;2.50;;;2.30;;
38435;SDS011;24220;48.168;14.024;2023-07-13T03:14:42;4.18;;;3.75;;
38435;SDS011;24220;48.168;14.024;2023-07-13T03:17:09;4.03;;;2.53;;
38435;SDS011;24220;48.168;14.024;2023-07-13T03:19:37;4.75;;;2.70;;
38435;SDS011;24220;48.168;14.024;2023-07-13T03:22:07;3.83;;;2.60;;
38435;SDS011;24220;48.168;14.024;2023-07-13T03:24:36;3.35;;;2.47;;
38435;SDS011;24220;48.168;14.024;2023-07-13T03:27:05;4.32;;;2.50;;
38435;SDS011;24220;48.168;14.024;2023-07-13T03:29:33;2.50;;;2.20;;
38435;SDS011;24220;48.168;14.024;2023-07-13T03:32:03;3.08;;;1.88;;
38435;SDS011;24220;48.168;14.024;2023-07-13T03:34:31;2.28;;;1.80;;
38435;SDS011;24220;48.168;14.024;2023-07-13T03:36:59;3.30;;;2.30;;
38435;SDS011;24220;48.168;14.024;2023-07-13T03:39:26;3.65;;;2.20;;
38435;SDS011;24220;48.168;14.024;2023-07-13T03:41:55;2.55;;;2.03;;
38435;SDS011;24220;48.168;14.024;2023-07-13T03:44:24;4.03;;;2.50;;
38435;SDS011;24220;48.168;14.024;2023-07-13T03:46:52;4.70;;;2.90;;
38435;SDS011;24220;48.168;14.024;2023-07-13T03:49:19;4.07;;;2.42;;
38435;SDS011;24220;48.168;14.024;2023-07-13T03:51:49;2.20;;;2.00;;
38435;SDS011;24220;48.168;14.024;2023-07-13T03:54:19;2.95;;;2.08;;
38435;SDS011;24220;48.168;14.024;2023-07-13T03:56:47;2.90;;;2.45;;
38435;SDS011;24220;48.168;14.024;2023-07-13T03:59:14;4.53;;;2.75;;
38435;SDS011;24220;48.168;14.024;2023-07-13T04:01:43;5.80;;;4.85;;
38435;SDS011;24220;48.168;14.024;2023-07-13T04:04:10;4.00;;;2.85;;
38435;SDS011;24220;48.168;14.024;2023-07-13T04:06:38;3.78;;;2.60;;
38435;SDS011;24220;48.168;14.024;2023-07-13T04:09:05;2.72;;;2.30;;
38435;SDS011;24220;48.168;14.024;2023-07-13T04:11:35;2.92;;;2.10;;
38435;SDS011;24220;48.168;14.024;2023-07-13T04:14:05;3.30;;;2.47;;
38435;SDS011;24220;48.168;14.024;2023-07-13T04:16:32;2.80;;;2.30;;
38435;SDS011;24220;48.168;14.024;2023-07-13T04:19:00;3.20;;;2.10;;
38435;SDS011;24220;48.168;14.024;2023-07-13T04:21:28;3.42;;;2.00;;
38435;SDS011;24220;48.168;14.024;2023-07-13T04:23:57;2.60;;;2.28;;
38435;SDS011;24220;48.168;14.024;2023-07-13T04:26:28;3.03;;;2.08;;
38435;SDS011;24220;48.168;14.024;2023-07-13T04:28:56;1.80;;;1.70;;
38435;SDS011;24220;48.168;14.024;2023-07-13T04:31:28;2.85;;;2.00;;
38435;SDS011;24220;48.168;14.024;2023-07-13T04:33:56;2.55;;;2.00;;
38435;SDS011;24220;48.168;14.024;2023-07-13T04:36:24;3.92;;;2.42;;
38435;SDS011;24220;48.168;14.024;2023-07-13T04:38:53;2.13;;;2.03;;
38435;SDS011;24220;48.168;14.024;2023-07-13T04:41:21;3.53;;;2.03;;
38435;SDS011;24220;48.168;14.024;2023-07-13T04:43:51;4.60;;;1.92;;
38435;SDS011;24220;48.168;14.024;2023-07-13T04:46:22;2.20;;;2.00;;
38435;SDS011;24220;48.168;14.024;2023-07-13T04:48:50;2.55;;;1.90;;
38435;SDS011;24220;48.168;14.024;2023-07-13T04:51:20;2.50;;;2.00;;
38435;SDS011;24220;48.168;14.024;2023-07-13T04:53:47;3.33;;;1.88;;
38435;SDS011;24220;48.168;14.024;2023-07-13T04:56:17;2.83;;;2.10;;
38435;SDS011;24220;48.168;14.024;2023-07-13T04:58:44;1.90;;;1.70;;
38435;SDS011;24220;48.168;14.024;2023-07-13T05:01:13;4.43;;;1.90;;
38435;SDS011;24220;48.168;14.024;2023-07-13T05:03:41;3.10;;;2.03;;
38435;SDS011;24220;48.168;14.024;2023-07-13T05:06:08;3.67;;;1.80;;
38435;SDS011;24220;48.168;14.024;2023-07-13T05:08:40;2.50;;;1.50;;
38435;SDS011;24220;48.168;14.024;2023-07-13T05:11:09;1.63;;;1.52;;
38435;SDS011;24220;48.168;14.024;2023-07-13T05:13:39;3.35;;;2.00;;
38435;SDS011;24220;48.168;14.024;2023-07-13T05:16:06;2.10;;;1.90;;
38435;SDS011;24220;48.168;14.024;2023-07-13T05:18:35;8.50;;;2.63;;
38435;SDS011;24220;48.168;14.024;2023-07-13T05:21:09;2.65;;;1.90;;
38435;SDS011;24220;48.168;14.024;2023-07-13T05:23:38;4.03;;;2.22;;
38435;SDS011;24220;48.168;14.024;2023-07-13T05:26:08;4.65;;;2.00;;
38435;SDS011;24220;48.168;14.024;2023-07-13T05:28:36;4.70;;;2.55;;
38435;SDS011;24220;48.168;14.024;2023-07-13T05:31:04;3.13;;;2.22;;
38435;SDS011;24220;48.168;14.024;2023-07-13T05:33:34;4.43;;;2.15;;
38435;SDS011;24220;48.168;14.024;2023-07-13T05:36:01;2.28;;;2.08;;
38435;SDS011;24220;48.168;14.024;2023-07-13T05:38:29;3.47;;;2.60;;
38435;SDS011;24220;48.168;14.024;2023-07-13T05:40:57;4.45;;;2.80;;
38435;SDS011;24220;48.168;14.024;2023-07-13T05:43:31;4.35;;;2.83;;
38435;SDS011;24220;48.168;14.024;2023-07-13T05:46:01;5.88;;;3.20;;
38435;SDS011;24220;48.168;14.024;2023-07-13T05:48:29;4.95;;;2.83;;
38435;SDS011;24220;48.168;14.024;2023-07-13T05:50:57;4.53;;;2.67;;
38435;SDS011;24220;48.168;14.024;2023-07-13T05:53:24;4.32;;;3.05;;
38435;SDS011;24220;48.168;14.024;2023-07-13T05:55:53;5.55;;;3.28;;
38435;SDS011;24220;48.168;14.024;2023-07-13T05:58:22;5.60;;;3.10;;
38435;SDS011;24220;48.168;14.024;2023-07-13T06:00:58;4.70;;;3.35;;
38435;SDS011;24220;48.168;14.024;2023-07-13T06:03:29;3.10;;;2.60;;
38435;SDS011;24220;48.168;14.024;2023-07-13T06:05:56;3.78;;;2.95;;
38435;SDS011;24220;48.168;14.024;2023-07-13T06:08:24;4.13;;;2.65;;
38435;SDS011;24220;48.168;14.024;2023-07-13T06:10:51;5.43;;;2.80;;
38435;SDS011;24220;48.168;14.024;2023-07-13T06:13:23;5.53;;;2.90;;
38435;SDS011;24220;48.168;14.024;2023-07-13T06:15:50;4.32;;;2.60;;
38435;SDS011;24220;48.168;14.024;2023-07-13T06:18:20;4.47;;;3.00;;
38435;SDS011;24220;48.168;14.024;2023-07-13T06:20:47;4.18;;;2.75;;
38435;SDS011;24220;48.168;14.024;2023-07-13T06:23:17;4.93;;;2.65;;
38435;SDS011;24220;48.168;14.024;2023-07-13T06:25:44;3.17;;;2.55;;
38435;SDS011;24220;48.168;14.024;2023-07-13T06:28:11;6.30;;;2.65;;
38435;SDS011;24220;48.168;14.024;2023-07-13T06:30:39;3.97;;;2.40;;
38435;SDS011;24220;48.168;14.024;2023-07-13T06:33:06;4.25;;;2.50;;
38435;SDS011;24220;48.168;14.024;2023-07-13T06:35:33;4.28;;;2.72;;
38435;SDS011;24220;48.168;14.024;2023-07-13T06:38:01;4.65;;;2.53;;
38435;SDS011;24220;48.168;14.024;2023-07-13T06:40:31;4.97;;;2.95;;
38435;SDS011;24220;48.168;14.024;2023-07-13T06:42:59;4.25;;;2.50;;
38435;SDS011;24220;48.168;14.024;2023-07-13T06:45:26;4.63;;;2.40;;
38435;SDS011;24220;48.168;14.024;2023-07-13T06:47:55;3.90;;;2.35;;
38435;SDS011;24220;48.168;14.024;2023-07-13T06:50:23;4.60;;;2.42;;
38435;SDS011;24220;48.168;14.024;2023-07-13T06:52:50;3.95;;;2.20;;
38435;SDS011;24220;48.168;14.024;2023-07-13T06:55:20;5.05;;;2.50;;
38435;SDS011;24220;48.168;14.024;2023-07-13T06:57:49;4.32;;;2.42;;
38435;SDS011;24220;48.168;14.024;2023-07-13T07:00:17;4.03;;;2.10;;
38435;SDS011;24220;48.168;14.024;2023-07-13T07:02:44;3.53;;;1.92;;
38435;SDS011;24220;48.168;14.024;2023-07-13T07:05:12;3.53;;;2.30;;
38435;SDS011;24220;48.168;14.024;2023-07-13T07:07:39;5.22;;;2.35;;
38435;SDS011;24220;48.168;14.024;2023-07-13T07:10:07;4.22;;;2.10;;
38435;SDS011;24220;48.168;14.024;2023-07-13T07:12:34;2.92;;;2.08;;
38435;SDS011;24220;48.168;14.024;2023-07-13T07:15:04;2.75;;;2.05;;
38435;SDS011;24220;48.168;14.024;2023-07-13T07:17:32;2.47;;;2.13;;
38435;SDS011;24220;48.168;14.024;2023-07-13T07:19:59;3.40;;;2.22;;
38435;SDS011;24220;48.168;14.024;2023-07-13T07:22:29;3.08;;;1.92;;
38435;SDS011;24220;48.168;14.024;2023-07-13T07:24:57;2.40;;;1.65;;
38435;SDS011;24220;48.168;14.024;2023-07-13T07:27:25;2.67;;;1.90;;
38435;SDS011;24220;48.168;14.024;2023-07-13T07:29:55;2.00;;;1.80;;
38435;SDS011;24220;48.168;14.024;2023-07-13T07:32:28;2.40;;;2.20;;
38435;SDS011;24220;48.168;14.024;2023-07-13T07:35:17;2.75;;;1.60;;
38435;SDS011;24220;48.168;14.024;2023-07-13T07:37:49;3.35;;;1.90;;
38435;SDS011;24220;48.168;14.024;2023-07-13T07:40:17;1.98;;;1.75;;
38435;SDS011;24220;48.168;14.024;2023-07-13T07:42:51;2.22;;;1.92;;
38435;SDS011;24220;48.168;14.024;2023-07-13T07:45:20;3.20;;;2.20;;
38435;SDS011;24220;48.168;14.024;2023-07-13T07:47:50;3.10;;;2.15;;
38435;SDS011;24220;48.168;14.024;2023-07-13T07:50:18;3.22;;;2.65;;
38435;SDS011;24220;48.168;14.024;2023-07-13T07:52:46;5.60;;;2.40;;
38435;SDS011;24220;48.168;14.024;2023-07-13T07:55:14;2.53;;;2.33;;
38435;SDS011;24220;48.168;14.024;2023-07-13T07:57:46;2.10;;;1.90;;
38435;SDS011;24220;48.168;14.024;2023-07-13T08:00:16;4.03;;;2.10;;
38435;SDS011;24220;48.168;14.024;2023-07-13T08:02:47;6.18;;;2.40;;
38435;SDS011;24220;48.168;14.024;2023-07-13T08:05:17;4.95;;;2.28;;
38435;SDS011;24220;48.168;14.024;2023-07-13T08:08:04;3.05;;;2.10;;
38435;SDS011;24220;48.168;14.024;2023-07-13T08:10:34;6.68;;;3.20;;
38435;SDS011;24220;48.168;14.024;2023-07-13T08:13:04;3.65;;;1.90;;
38435;SDS011;24220;48.168;14.024;2023-07-13T08:15:34;3.42;;;1.83;;
38435;SDS011;24220;48.168;14.024;2023-07-13T08:18:03;2.20;;;2.05;;
38435;SDS011;24220;48.168;14.024;2023-07-13T08:20:30;3.72;;;2.00;;
38435;SDS011;24220;48.168;14.024;2023-07-13T08:22:57;3.10;;;2.22;;
38435;SDS011;24220;48.168;14.024;2023-07-13T08:25:25;5.43;;;2.28;;
38435;SDS011;24220;48.168;14.024;2023-07-13T08:27:52;3.03;;;2.15;;
38435;SDS011;24220;48.168;14.024;2023-07-13T08:30:22;2.80;;;1.98;;
38435;SDS011;24220;48.168;14.024;2023-07-13T08:32:50;2.78;;;2.17;;
38435;SDS011;24220;48.168;14.024;2023-07-13T08:35:19;3.35;;;2.08;;
38435;SDS011;24220;48.168;14.024;2023-07-13T08:37:47;3.58;;;2.13;;
38435;SDS011;24220;48.168;14.024;2023-07-13T08:40:14;4.05;;;2.15;;
38435;SDS011;24220;48.168;14.024;2023-07-13T08:42:44;2.75;;;1.95;;
38435;SDS011;24220;48.168;14.024;2023-07-13T08:48:01;3.28;;;2.13;;
38435;SDS011;24220;48.168;14.024;2023-07-13T08:50:47;2.92;;;1.98;;
38435;SDS011;24220;48.168;14.024;2023-07-13T08:53:37;2.10;;;1.90;;
38435;SDS011;24220;48.168;14.024;2023-07-13T08:56:13;3.90;;;1.88;;
38435;SDS011;24220;48.168;14.024;2023-07-13T08:58:51;3.20;;;1.90;;
38435;SDS011;24220;48.168;14.024;2023-07-13T09:15:24;3.10;;;1.92;;
38435;SDS011;24220;48.168;14.024;2023-07-13T09:18:10;3.53;;;2.00;;
38435;SDS011;24220;48.168;14.024;2023-07-13T09:20:57;4.93;;;2.10;;
38435;SDS011;24220;48.168;14.024;2023-07-13T09:23:31;2.75;;;1.90;;
38435;SDS011;24220;48.168;14.024;2023-07-13T09:26:03;3.35;;;2.00;;
38435;SDS011;24220;48.168;14.024;2023-07-13T09:28:38;4.13;;;2.10;;
38435;SDS011;24220;48.168;14.024;2023-07-13T09:31:30;3.58;;;1.98;;
38435;SDS011;24220;48.168;14.024;2023-07-13T09:34:04;4.15;;;2.38;;
38435;SDS011;24220;48.168;14.024;2023-07-13T09:36:43;3.47;;;2.03;;
38435;SDS011;24220;48.168;14.024;2023-07-13T09:39:15;2.83;;;1.90;;
38435;SDS011;24220;48.168;14.024;2023-07-13T09:41:57;2.60;;;1.92;;
38435;SDS011;24220;48.168;14.024;2023-07-13T09:44:42;2.30;;;1.77;;
38435;SDS011;24220;48.168;14.024;2023-07-13T09:47:26;5.43;;;1.90;;
38435;SDS011;24220;48.168;14.024;2023-07-13T09:49:57;2.38;;;1.75;;
38435;SDS011;24220;48.168;14.024;2023-07-13T09:52:45;2.72;;;2.00;;
38435;SDS011;24220;48.168;14.024;2023-07-13T10:01:07;3.35;;;2.70;;
38435;SDS011;24220;48.168;14.024;2023-07-13T10:03:36;2.20;;;2.00;;
38435;SDS011;24220;48.168;14.024;2023-07-13T10:06:13;3.13;;;2.00;;
38435;SDS011;24220;48.168;14.024;2023-07-13T10:08:44;3.08;;;1.80;;
38435;SDS011;24220;48.168;14.024;2023-07-13T10:11:19;1.88;;;1.77;;
38435;SDS011;24220;48.168;14.024;2023-07-13T10:13:55;2.53;;;2.10;;
38435;SDS011;24220;48.168;14.024;2023-07-13T10:16:28;3.35;;;2.17;;
38435;SDS011;24220;48.168;14.024;2023-07-13T10:19:05;2.10;;;1.90;;
38435;SDS011;24220;48.168;14.024;2023-07-13T10:21:41;3.80;;;2.35;;
38435;SDS011;24220;48.168;14.024;2023-07-13T10:24:22;1.90;;;1.80;;
38435;SDS011;24220;48.168;14.024;2023-07-13T10:32:21;2.80;;;2.15;;
38435;SDS011;24220;48.168;14.024;2023-07-13T10:34:51;3.53;;;2.10;;
38435;SDS011;24220;48.168;14.024;2023-07-13T10:37:22;9.27;;;2.60;;
38435;SDS011;24220;48.168;14.024;2023-07-13T10:39:52;3.15;;;1.73;;
38435;SDS011;24220;48.168;14.024;2023-07-13T10:42:28;1.95;;;1.75;;
38435;SDS011;24220;48.168;14.024;2023-07-13T10:44:58;4.35;;;2.00;;
38435;SDS011;24220;48.168;14.024;2023-07-13T10:47:26;3.30;;;1.88;;
38435;SDS011;24220;48.168;14.024;2023-07-13T10:49:57;2.13;;;1.92;;
38435;SDS011;24220;48.168;14.024;2023-07-13T10:52:46;3.70;;;2.03;;
38435;SDS011;24220;48.168;14.024;2023-07-13T10:58:20;2.10;;;1.90;;
38435;SDS011;24220;48.168;14.024;2023-07-13T11:03:30;1.65;;;1.55;;
38435;SDS011;24220;48.168;14.024;2023-07-13T11:06:12;5.57;;;2.10;;
38435;SDS011;24220;48.168;14.024;2023-07-13T11:12:01;2.30;;;1.60;;
38435;SDS011;24220;48.168;14.024;2023-07-13T11:14:35;3.58;;;1.70;;
38435;SDS011;24220;48.168;14.024;2023-07-13T11:18:10;2.70;;;2.22;;
38435;SDS011;24220;48.168;14.024;2023-07-13T11:22:42;2.40;;;1.88;;
38435;SDS011;24220;48.168;14.024;2023-07-13T11:27:50;3.00;;;2.03;;
38435;SDS011;24220;48.168;14.024;2023-07-13T11:33:14;2.55;;;1.70;;
38435;SDS011;24220;48.168;14.024;2023-07-13T11:36:04;2.28;;;1.88;;
38435;SDS011;24220;48.168;14.024;2023-07-13T11:38:42;4.00;;;2.15;;
38435;SDS011;24220;48.168;14.024;2023-07-13T11:44:02;2.38;;;1.92;;
38435;SDS011;24220;48.168;14.024;2023-07-13T11:46:34;3.92;;;2.40;;
38435;SDS011;24220;48.168;14.024;2023-07-13T11:49:04;5.03;;;2.00;;
38435;SDS011;24220;48.168;14.024;2023-07-13T11:51:35;2.63;;;2.13;;
38435;SDS011;24220;48.168;14.024;2023-07-13T11:54:04;2.85;;;2.25;;
38435;SDS011;24220;48.168;14.024;2023-07-13T11:56:39;2.67;;;2.45;;
38435;SDS011;24220;48.168;14.024;2023-07-13T11:59:07;4.35;;;2.30;;
38435;SDS011;24220;48.168;14.024;2023-07-13T12:01:43;2.15;;;1.95;;
38435;SDS011;24220;48.168;14.024;2023-07-13T12:04:20;2.30;;;2.00;;
38435;SDS011;24220;48.168;14.024;2023-07-13T12:07:06;3.33;;;2.40;;
38435;SDS011;24220;48.168;14.024;2023-07-13T12:09:41;3.70;;;2.17;;
38435;SDS011;24220;48.168;14.024;2023-07-13T12:12:16;3.42;;;2.08;;
38435;SDS011;24220;48.168;14.024;2023-07-13T12:14:45;3.60;;;2.33;;
38435;SDS011;24220;48.168;14.024;2023-07-13T12:17:18;2.97;;;2.00;;
38435;SDS011;24220;48.168;14.024;2023-07-13T12:19:48;2.25;;;2.00;;
38435;SDS011;24220;48.168;14.024;2023-07-13T12:22:17;2.67;;;2.08;;
38435;SDS011;24220;48.168;14.024;2023-07-13T12:24:49;2.13;;;1.58;;
38435;SDS011;24220;48.168;14.024;2023-07-13T12:27:20;2.40;;;2.20;;
38435;SDS011;24220;48.168;14.024;2023-07-13T12:30:03;2.03;;;1.83;;
38435;SDS011;24220;48.168;14.024;2023-07-13T12:33:01;2.20;;;1.67;;
38435;SDS011;24220;48.168;14.024;2023-07-13T12:35:42;2.35;;;1.92;;
38435;SDS011;24220;48.168;14.024;2023-07-13T12:38:15;2.20;;;1.80;;
38435;SDS011;24220;48.168;14.024;2023-07-13T12:40:43;2.63;;;1.65;;
38435;SDS011;24220;48.168;14.024;2023-07-13T12:43:11;1.85;;;1.27;;
38435;SDS011;24220;48.168;14.024;2023-07-13T12:45:54;1.73;;;1.10;;
38435;SDS011;24220;48.168;14.024;2023-07-13T12:48:22;3.22;;;1.35;;
38435;SDS011;24220;48.168;14.024;2023-07-13T12:51:13;2.47;;;1.23;;
38435;SDS011;24220;48.168;14.024;2023-07-13T12:53:42;1.05;;;0.90;;
38435;SDS011;24220;48.168;14.024;2023-07-13T12:59:01;2.55;;;1.08;;
38435;SDS011;24220;48.168;14.024;2023-07-13T13:01:34;2.00;;;1.20;;
38435;SDS011;24220;48.168;14.024;2023-07-13T13:04:08;3.50;;;1.10;;
38435;SDS011;24220;48.168;14.024;2023-07-13T13:06:40;1.67;;;1.08;;
38435;SDS011;24220;48.168;14.024;2023-07-13T13:09:11;1.35;;;1.08;;
38435;SDS011;24220;48.168;14.024;2023-07-13T13:11:40;1.65;;;1.13;;
38435;SDS011;24220;48.168;14.024;2023-07-13T13:14:10;2.92;;;1.08;;
38435;SDS011;24220;48.168;14.024;2023-07-13T13:16:48;0.93;;;0.85;;
38435;SDS011;24220;48.168;14.024;2023-07-13T13:19:18;1.90;;;1.20;;
38435;SDS011;24220;48.168;14.024;2023-07-13T13:21:57;2.58;;;1.15;;
38435;SDS011;24220;48.168;14.024;2023-07-13T13:24:26;1.85;;;1.02;;
38435;SDS011;24220;48.168;14.024;2023-07-13T13:26:55;1.15;;;0.93;;
38435;SDS011;24220;48.168;14.024;2023-07-13T13:29:27;1.40;;;1.02;;
38435;SDS011;24220;48.168;14.024;2023-07-13T13:31:55;2.05;;;1.17;;
38435;SDS011;24220;48.168;14.024;2023-07-13T13:34:25;2.42;;;1.30;;
38435;SDS011;24220;48.168;14.024;2023-07-13T13:36:53;1.27;;;1.15;;
38435;SDS011;24220;48.168;14.024;2023-07-13T13:39:28;2.22;;;1.10;;
38435;SDS011;24220;48.168;14.024;2023-07-13T13:41:59;3.83;;;1.30;;
38435;SDS011;24220;48.168;14.024;2023-07-13T13:44:27;2.50;;;1.15;;
38435;SDS011;24220;48.168;14.024;2023-07-13T13:46:54;1.30;;;1.05;;
38435;SDS011;24220;48.168;14.024;2023-07-13T13:49:26;2.28;;;1.17;;
38435;SDS011;24220;48.168;14.024;2023-07-13T13:51:54;1.42;;;1.20;;
38435;SDS011;24220;48.168;14.024;2023-07-13T13:54:24;2.83;;;1.27;;
38435;SDS011;24220;48.168;14.024;2023-07-13T13:56:52;1.70;;;1.17;;
38435;SDS011;24220;48.168;14.024;2023-07-13T13:59:20;2.35;;;1.00;;
38435;SDS011;24220;48.168;14.024;2023-07-13T14:01:47;1.92;;;1.30;;
38435;SDS011;24220;48.168;14.024;2023-07-13T14:04:20;1.20;;;1.05;;
38435;SDS011;24220;48.168;14.024;2023-07-13T14:06:50;3.67;;;1.42;;
38435;SDS011;24220;48.168;14.024;2023-07-13T14:09:19;3.47;;;1.00;;
38435;SDS011;24220;48.168;14.024;2023-07-13T14:11:47;3.10;;;1.10;;
38435;SDS011;24220;48.168;14.024;2023-07-13T14:14:19;2.30;;;1.10;;
38435;SDS011;24220;48.168;14.024;2023-07-13T14:16:49;1.80;;;1.00;;
38435;SDS011;24220;48.168;14.024;2023-07-13T14:19:21;1.30;;;1.08;;
38435;SDS011;24220;48.168;14.024;2023-07-13T14:21:51;1.95;;;1.02;;
38435;SDS011;24220;48.168;14.024;2023-07-13T14:24:21;1.80;;;1.10;;
38435;SDS011;24220;48.168;14.024;2023-07-13T14:26:48;1.63;;;1.00;;
38435;SDS011;24220;48.168;14.024;2023-07-13T14:29:18;4.13;;;1.10;;
38435;SDS011;24220;48.168;14.024;2023-07-13T14:31:51;1.42;;;1.00;;
38435;SDS011;24220;48.168;14.024;2023-07-13T14:34:21;3.00;;;1.50;;
38435;SDS011;24220;48.168;14.024;2023-07-13T14:36:49;2.47;;;1.10;;
38435;SDS011;24220;48.168;14.024;2023-07-13T14:39:18;2.58;;;1.70;;
38435;SDS011;24220;48.168;14.024;2023-07-13T14:41:53;1.90;;;1.30;;
38435;SDS011;24220;48.168;14.024;2023-07-13T14:44:23;2.20;;;1.25;;
38435;SDS011;24220;48.168;14.024;2023-07-13T14:49:30;1.42;;;1.08;;
38435;SDS011;24220;48.168;14.024;2023-07-13T14:52:12;1.58;;;1.05;;
38435;SDS011;24220;48.168;14.024;2023-07-13T14:54:44;3.58;;;1.10;;
38435;SDS011;24220;48.168;14.024;2023-07-13T14:57:13;2.30;;;1.00;;
38435;SDS011;24220;48.168;14.024;2023-07-13T14:59:42;1.55;;;0.98;;
38435;SDS011;24220;48.168;14.024;2023-07-13T15:04:56;1.67;;;0.95;;
38435;SDS011;24220;48.168;14.024;2023-07-13T15:07:24;1.75;;;1.10;;
38435;SDS011;24220;48.168;14.024;2023-07-13T15:09:54;1.40;;;0.85;;
38435;SDS011;24220;48.168;14.024;2023-07-13T15:12:21;1.15;;;1.00;;
38435;SDS011;24220;48.168;14.024;2023-07-13T15:14:49;1.88;;;1.00;;
38435;SDS011;24220;48.168;14.024;2023-07-13T15:17:36;1.95;;;1.25;;
38435;SDS011;24220;48.168;14.024;2023-07-13T15:20:06;3.08;;;1.20;;
38435;SDS011;24220;48.168;14.024;2023-07-13T15:22:43;1.17;;;0.90;;
38435;SDS011;24220;48.168;14.024;2023-07-13T15:25:22;2.63;;;1.10;;
38435;SDS011;24220;48.168;14.024;2023-07-13T15:27:55;1.35;;;1.10;;
38435;SDS011;24220;48.168;14.024;2023-07-13T15:30:27;0.90;;;0.90;;
38435;SDS011;24220;48.168;14.024;2023-07-13T15:32:57;2.05;;;1.05;;
38435;SDS011;24220;48.168;14.024;2023-07-13T15:35:33;1.95;;;1.17;;
38435;SDS011;24220;48.168;14.024;2023-07-13T15:38:00;2.22;;;1.00;;
38435;SDS011;24220;48.168;14.024;2023-07-13T15:40:30;1.90;;;1.00;;
38435;SDS011;24220;48.168;14.024;2023-07-13T15:42:57;1.80;;;1.00;;
38435;SDS011;24220;48.168;14.024;2023-07-13T15:45:26;1.92;;;1.20;;
38435;SDS011;24220;48.168;14.024;2023-07-13T15:47:57;1.33;;;0.90;;
38435;SDS011;24220;48.168;14.024;2023-07-13T15:50:25;2.25;;;0.90;;
38435;SDS011;24220;48.168;14.024;2023-07-13T15:52:53;2.28;;;1.27;;
38435;SDS011;24220;48.168;14.024;2023-07-13T15:55:23;2.13;;;1.05;;